Yoman Ferry, Washington
Current Conditions -  °F | °C
As of 12:58 AM on Wednesday 22 Oct 2014 (Local Time) from KGRF Reporting Station
Drizzle Drizzle  
Wind Chill: 58°   Ceiling: 6000
Heat Index: 58°   Visibility: 10mi
Dew Point: 48°   Wind: 13mph
Humidity: 69%   Direction: 140°SE
Pressure: 29.72"   Gusts: NA
Location:  47.1608°N, 122.692°W
Report Text: KGRF 220758Z AUTO 14011KT 10SM DZ FEW042 BKN060 OVC075 14/09 A2972 RMK AO2 RAB0731E0744 SLP068 P0000 T01440087 401700103 $
Loading
Personal Weather Stations






























Interactive Weather Map
Tropical Storm Tracking
New forecast layout! Learn more

10-Day Weather Forecast

Advertisements
Track Severe Weather on mobile